sensor_id;sensor_type;location;lat;lon;timestamp;P1;durP1;ratioP1;P2;durP2;ratioP2
60851;SDS011;48553;50.766;2.900;2022-11-15T00:00:24;20.05;;;9.52;;
60851;SDS011;48553;50.766;2.900;2022-11-15T00:03:26;18.17;;;9.13;;
60851;SDS011;48553;50.766;2.900;2022-11-15T00:06:27;18.05;;;9.10;;
60851;SDS011;48553;50.766;2.900;2022-11-15T00:09:27;17.95;;;8.90;;
60851;SDS011;48553;50.766;2.900;2022-11-15T00:12:28;16.35;;;9.18;;
60851;SDS011;48553;50.766;2.900;2022-11-15T00:15:28;17.58;;;8.95;;
60851;SDS011;48553;50.766;2.900;2022-11-15T00:18:29;17.15;;;8.15;;
60851;SDS011;48553;50.766;2.900;2022-11-15T00:21:30;13.60;;;7.43;;
60851;SDS011;48553;50.766;2.900;2022-11-15T00:24:31;17.25;;;7.70;;
60851;SDS011;48553;50.766;2.900;2022-11-15T00:27:31;14.73;;;7.78;;
60851;SDS011;48553;50.766;2.900;2022-11-15T00:30:32;13.27;;;7.32;;
60851;SDS011;48553;50.766;2.900;2022-11-15T00:33:32;15.60;;;7.60;;
60851;SDS011;48553;50.766;2.900;2022-11-15T00:36:33;14.60;;;7.13;;
60851;SDS011;48553;50.766;2.900;2022-11-15T00:39:34;13.45;;;6.38;;
60851;SDS011;48553;50.766;2.900;2022-11-15T00:42:34;13.93;;;6.50;;
60851;SDS011;48553;50.766;2.900;2022-11-15T00:45:35;14.43;;;6.18;;
60851;SDS011;48553;50.766;2.900;2022-11-15T00:48:36;12.85;;;5.93;;
60851;SDS011;48553;50.766;2.900;2022-11-15T00:51:37;12.82;;;5.45;;
60851;SDS011;48553;50.766;2.900;2022-11-15T00:54:38;12.55;;;5.45;;
60851;SDS011;48553;50.766;2.900;2022-11-15T00:57:38;9.80;;;5.28;;
60851;SDS011;48553;50.766;2.900;2022-11-15T01:00:39;10.07;;;4.70;;
60851;SDS011;48553;50.766;2.900;2022-11-15T01:03:40;10.45;;;4.85;;
60851;SDS011;48553;50.766;2.900;2022-11-15T01:06:41;9.70;;;4.40;;
60851;SDS011;48553;50.766;2.900;2022-11-15T01:09:41;9.63;;;4.22;;
60851;SDS011;48553;50.766;2.900;2022-11-15T01:12:42;12.30;;;4.28;;
60851;SDS011;48553;50.766;2.900;2022-11-15T01:15:42;7.65;;;3.97;;
60851;SDS011;48553;50.766;2.900;2022-11-15T01:18:43;8.00;;;3.60;;
60851;SDS011;48553;50.766;2.900;2022-11-15T01:21:44;8.82;;;3.80;;
60851;SDS011;48553;50.766;2.900;2022-11-15T01:24:45;8.77;;;3.92;;
60851;SDS011;48553;50.766;2.900;2022-11-15T01:27:45;10.02;;;4.28;;
60851;SDS011;48553;50.766;2.900;2022-11-15T01:30:45;8.73;;;3.78;;
60851;SDS011;48553;50.766;2.900;2022-11-15T01:33:46;8.55;;;3.58;;
60851;SDS011;48553;50.766;2.900;2022-11-15T01:36:48;9.65;;;3.60;;
60851;SDS011;48553;50.766;2.900;2022-11-15T01:39:48;8.65;;;3.60;;
60851;SDS011;48553;50.766;2.900;2022-11-15T01:42:48;8.00;;;3.42;;
60851;SDS011;48553;50.766;2.900;2022-11-15T01:45:53;7.82;;;3.20;;
60851;SDS011;48553;50.766;2.900;2022-11-15T01:49:00;7.10;;;3.10;;
60851;SDS011;48553;50.766;2.900;2022-11-15T01:58:06;8.15;;;2.70;;
60851;SDS011;48553;50.766;2.900;2022-11-15T02:01:07;5.97;;;2.00;;
60851;SDS011;48553;50.766;2.900;2022-11-15T02:07:16;7.05;;;1.95;;
60851;SDS011;48553;50.766;2.900;2022-11-15T02:10:20;5.60;;;1.75;;
60851;SDS011;48553;50.766;2.900;2022-11-15T02:13:21;5.22;;;1.55;;
60851;SDS011;48553;50.766;2.900;2022-11-15T02:30:22;5.47;;;1.50;;
60851;SDS011;48553;50.766;2.900;2022-11-15T02:33:34;5.30;;;1.25;;
60851;SDS011;48553;50.766;2.900;2022-11-15T02:43:10;5.60;;;1.35;;
60851;SDS011;48553;50.766;2.900;2022-11-15T02:46:48;6.03;;;1.90;;
60851;SDS011;48553;50.766;2.900;2022-11-15T02:50:12;7.00;;;1.73;;
60851;SDS011;48553;50.766;2.900;2022-11-15T02:53:16;7.80;;;2.30;;
60851;SDS011;48553;50.766;2.900;2022-11-15T02:56:16;9.75;;;2.50;;
60851;SDS011;48553;50.766;2.900;2022-11-15T03:09:22;7.03;;;2.95;;
60851;SDS011;48553;50.766;2.900;2022-11-15T03:12:28;9.13;;;3.13;;
60851;SDS011;48553;50.766;2.900;2022-11-15T03:15:37;7.65;;;3.15;;
60851;SDS011;48553;50.766;2.900;2022-11-15T03:18:50;7.45;;;3.45;;
60851;SDS011;48553;50.766;2.900;2022-11-15T03:22:16;10.30;;;3.70;;
60851;SDS011;48553;50.766;2.900;2022-11-15T03:25:20;9.40;;;3.60;;
60851;SDS011;48553;50.766;2.900;2022-11-15T03:28:43;8.43;;;3.73;;
60851;SDS011;48553;50.766;2.900;2022-11-15T03:31:54;9.90;;;3.33;;
60851;SDS011;48553;50.766;2.900;2022-11-15T03:35:00;7.40;;;3.70;;
60851;SDS011;48553;50.766;2.900;2022-11-15T03:38:08;8.63;;;3.67;;
60851;SDS011;48553;50.766;2.900;2022-11-15T03:41:28;10.52;;;3.80;;
60851;SDS011;48553;50.766;2.900;2022-11-15T03:47:49;8.25;;;3.92;;
60851;SDS011;48553;50.766;2.900;2022-11-15T03:50:54;7.22;;;3.60;;
60851;SDS011;48553;50.766;2.900;2022-11-15T03:53:56;6.88;;;3.65;;
60851;SDS011;48553;50.766;2.900;2022-11-15T03:56:56;10.40;;;3.58;;
60851;SDS011;48553;50.766;2.900;2022-11-15T03:59:57;7.20;;;3.70;;
60851;SDS011;48553;50.766;2.900;2022-11-15T04:02:57;8.40;;;3.90;;
60851;SDS011;48553;50.766;2.900;2022-11-15T04:05:57;9.18;;;3.78;;
60851;SDS011;48553;50.766;2.900;2022-11-15T04:08:58;9.77;;;3.83;;
60851;SDS011;48553;50.766;2.900;2022-11-15T04:11:58;9.63;;;3.92;;
60851;SDS011;48553;50.766;2.900;2022-11-15T04:14:59;10.32;;;4.60;;
60851;SDS011;48553;50.766;2.900;2022-11-15T04:18:07;9.30;;;4.32;;
60851;SDS011;48553;50.766;2.900;2022-11-15T04:21:07;12.63;;;4.93;;
60851;SDS011;48553;50.766;2.900;2022-11-15T04:24:27;9.48;;;5.03;;
60851;SDS011;48553;50.766;2.900;2022-11-15T04:27:27;11.85;;;5.38;;
60851;SDS011;48553;50.766;2.900;2022-11-15T04:30:27;9.98;;;4.93;;
60851;SDS011;48553;50.766;2.900;2022-11-15T04:33:28;12.27;;;5.72;;
60851;SDS011;48553;50.766;2.900;2022-11-15T04:36:28;11.68;;;5.05;;
60851;SDS011;48553;50.766;2.900;2022-11-15T04:39:48;12.82;;;5.22;;
60851;SDS011;48553;50.766;2.900;2022-11-15T04:42:48;10.65;;;5.30;;
60851;SDS011;48553;50.766;2.900;2022-11-15T04:45:48;10.55;;;5.43;;
60851;SDS011;48553;50.766;2.900;2022-11-15T04:48:49;10.75;;;5.13;;
60851;SDS011;48553;50.766;2.900;2022-11-15T04:51:50;12.73;;;5.18;;
60851;SDS011;48553;50.766;2.900;2022-11-15T04:54:50;11.65;;;5.63;;
60851;SDS011;48553;50.766;2.900;2022-11-15T04:57:57;13.23;;;5.88;;
60851;SDS011;48553;50.766;2.900;2022-11-15T05:01:11;10.90;;;5.50;;
60851;SDS011;48553;50.766;2.900;2022-11-15T05:04:14;9.98;;;4.95;;
60851;SDS011;48553;50.766;2.900;2022-11-15T05:07:20;9.57;;;4.72;;
60851;SDS011;48553;50.766;2.900;2022-11-15T05:10:21;9.85;;;4.97;;
60851;SDS011;48553;50.766;2.900;2022-11-15T05:13:21;11.57;;;5.22;;
60851;SDS011;48553;50.766;2.900;2022-11-15T05:16:22;10.95;;;5.10;;
60851;SDS011;48553;50.766;2.900;2022-11-15T05:19:22;10.13;;;4.68;;
60851;SDS011;48553;50.766;2.900;2022-11-15T05:22:23;7.28;;;4.43;;
60851;SDS011;48553;50.766;2.900;2022-11-15T05:25:24;10.23;;;4.57;;
60851;SDS011;48553;50.766;2.900;2022-11-15T05:28:24;8.60;;;4.22;;
60851;SDS011;48553;50.766;2.900;2022-11-15T05:31:25;8.13;;;3.95;;
60851;SDS011;48553;50.766;2.900;2022-11-15T05:34:26;9.20;;;4.15;;
60851;SDS011;48553;50.766;2.900;2022-11-15T05:37:28;7.35;;;4.07;;
60851;SDS011;48553;50.766;2.900;2022-11-15T05:40:28;8.88;;;3.90;;
60851;SDS011;48553;50.766;2.900;2022-11-15T05:43:30;5.88;;;3.30;;
60851;SDS011;48553;50.766;2.900;2022-11-15T05:46:33;6.32;;;3.60;;
60851;SDS011;48553;50.766;2.900;2022-11-15T05:49:36;6.88;;;3.35;;
60851;SDS011;48553;50.766;2.900;2022-11-15T05:52:38;6.70;;;3.25;;
60851;SDS011;48553;50.766;2.900;2022-11-15T05:55:39;8.63;;;3.15;;
60851;SDS011;48553;50.766;2.900;2022-11-15T05:58:40;7.13;;;3.40;;
60851;SDS011;48553;50.766;2.900;2022-11-15T06:01:42;8.60;;;3.05;;
60851;SDS011;48553;50.766;2.900;2022-11-15T06:04:42;7.85;;;3.28;;
60851;SDS011;48553;50.766;2.900;2022-11-15T06:07:43;7.45;;;3.03;;
60851;SDS011;48553;50.766;2.900;2022-11-15T06:10:44;7.60;;;3.17;;
60851;SDS011;48553;50.766;2.900;2022-11-15T06:13:44;7.00;;;3.03;;
60851;SDS011;48553;50.766;2.900;2022-11-15T06:16:44;7.22;;;3.53;;
60851;SDS011;48553;50.766;2.900;2022-11-15T06:19:45;8.48;;;3.92;;
60851;SDS011;48553;50.766;2.900;2022-11-15T06:22:45;8.77;;;4.03;;
60851;SDS011;48553;50.766;2.900;2022-11-15T06:25:46;9.25;;;4.10;;
60851;SDS011;48553;50.766;2.900;2022-11-15T06:28:46;8.77;;;4.18;;
60851;SDS011;48553;50.766;2.900;2022-11-15T06:31:46;9.80;;;4.82;;
60851;SDS011;48553;50.766;2.900;2022-11-15T06:34:47;7.75;;;4.25;;
60851;SDS011;48553;50.766;2.900;2022-11-15T06:37:47;11.23;;;4.75;;
60851;SDS011;48553;50.766;2.900;2022-11-15T06:40:48;9.63;;;4.85;;
60851;SDS011;48553;50.766;2.900;2022-11-15T06:43:48;8.98;;;5.00;;
60851;SDS011;48553;50.766;2.900;2022-11-15T06:46:49;9.82;;;5.10;;
60851;SDS011;48553;50.766;2.900;2022-11-15T06:49:49;11.10;;;5.47;;
60851;SDS011;48553;50.766;2.900;2022-11-15T06:52:49;10.38;;;5.57;;
60851;SDS011;48553;50.766;2.900;2022-11-15T06:55:50;12.35;;;5.53;;
60851;SDS011;48553;50.766;2.900;2022-11-15T06:58:50;10.57;;;4.93;;
60851;SDS011;48553;50.766;2.900;2022-11-15T07:01:51;10.95;;;5.35;;
60851;SDS011;48553;50.766;2.900;2022-11-15T07:04:51;12.68;;;5.32;;
60851;SDS011;48553;50.766;2.900;2022-11-15T07:07:52;12.20;;;5.50;;
60851;SDS011;48553;50.766;2.900;2022-11-15T07:10:53;12.57;;;5.65;;
60851;SDS011;48553;50.766;2.900;2022-11-15T07:13:54;10.07;;;5.40;;
60851;SDS011;48553;50.766;2.900;2022-11-15T07:16:55;11.90;;;5.07;;
60851;SDS011;48553;50.766;2.900;2022-11-15T07:19:55;9.32;;;4.93;;
60851;SDS011;48553;50.766;2.900;2022-11-15T07:23:02;11.20;;;5.22;;
60851;SDS011;48553;50.766;2.900;2022-11-15T07:26:03;9.45;;;5.13;;
60851;SDS011;48553;50.766;2.900;2022-11-15T07:29:03;9.95;;;5.25;;
60851;SDS011;48553;50.766;2.900;2022-11-15T07:32:04;11.43;;;5.65;;
60851;SDS011;48553;50.766;2.900;2022-11-15T07:35:04;12.13;;;5.55;;
60851;SDS011;48553;50.766;2.900;2022-11-15T07:38:05;11.63;;;5.85;;
60851;SDS011;48553;50.766;2.900;2022-11-15T07:41:05;10.95;;;5.30;;
60851;SDS011;48553;50.766;2.900;2022-11-15T07:44:06;10.98;;;5.05;;
60851;SDS011;48553;50.766;2.900;2022-11-15T07:47:07;9.60;;;5.18;;
60851;SDS011;48553;50.766;2.900;2022-11-15T07:50:07;10.00;;;5.05;;
60851;SDS011;48553;50.766;2.900;2022-11-15T07:53:08;10.18;;;5.20;;
60851;SDS011;48553;50.766;2.900;2022-11-15T07:56:10;11.82;;;5.80;;
60851;SDS011;48553;50.766;2.900;2022-11-15T07:59:11;12.32;;;5.22;;
60851;SDS011;48553;50.766;2.900;2022-11-15T08:02:12;11.55;;;5.63;;
60851;SDS011;48553;50.766;2.900;2022-11-15T08:05:12;10.57;;;4.97;;
60851;SDS011;48553;50.766;2.900;2022-11-15T08:08:13;11.38;;;4.70;;
60851;SDS011;48553;50.766;2.900;2022-11-15T08:11:13;7.70;;;3.97;;
60851;SDS011;48553;50.766;2.900;2022-11-15T08:14:13;9.50;;;3.97;;
60851;SDS011;48553;50.766;2.900;2022-11-15T08:17:14;7.65;;;3.60;;
60851;SDS011;48553;50.766;2.900;2022-11-15T08:20:14;7.80;;;3.60;;
60851;SDS011;48553;50.766;2.900;2022-11-15T08:23:14;9.05;;;3.03;;
60851;SDS011;48553;50.766;2.900;2022-11-15T08:26:15;7.72;;;3.35;;
60851;SDS011;48553;50.766;2.900;2022-11-15T08:29:16;6.32;;;2.80;;
60851;SDS011;48553;50.766;2.900;2022-11-15T08:32:17;7.97;;;2.63;;
60851;SDS011;48553;50.766;2.900;2022-11-15T08:35:18;6.18;;;2.30;;
60851;SDS011;48553;50.766;2.900;2022-11-15T08:38:19;5.38;;;2.22;;
60851;SDS011;48553;50.766;2.900;2022-11-15T08:41:23;8.05;;;2.03;;
60851;SDS011;48553;50.766;2.900;2022-11-15T08:44:26;4.47;;;1.80;;
60851;SDS011;48553;50.766;2.900;2022-11-15T08:47:27;6.05;;;1.80;;
60851;SDS011;48553;50.766;2.900;2022-11-15T08:50:27;6.00;;;1.90;;
60851;SDS011;48553;50.766;2.900;2022-11-15T08:53:28;6.60;;;1.80;;
60851;SDS011;48553;50.766;2.900;2022-11-15T08:56:28;4.78;;;1.60;;
60851;SDS011;48553;50.766;2.900;2022-11-15T08:59:28;3.50;;;1.48;;
60851;SDS011;48553;50.766;2.900;2022-11-15T09:02:29;4.97;;;1.60;;
60851;SDS011;48553;50.766;2.900;2022-11-15T09:05:29;5.43;;;1.55;;
60851;SDS011;48553;50.766;2.900;2022-11-15T09:08:30;6.55;;;1.58;;
60851;SDS011;48553;50.766;2.900;2022-11-15T09:11:31;5.03;;;1.50;;
60851;SDS011;48553;50.766;2.900;2022-11-15T09:14:31;6.00;;;1.50;;
60851;SDS011;48553;50.766;2.900;2022-11-15T09:17:31;5.18;;;1.65;;
60851;SDS011;48553;50.766;2.900;2022-11-15T09:20:32;6.00;;;1.50;;
60851;SDS011;48553;50.766;2.900;2022-11-15T09:23:33;6.22;;;1.45;;
60851;SDS011;48553;50.766;2.900;2022-11-15T09:26:33;4.65;;;1.50;;
60851;SDS011;48553;50.766;2.900;2022-11-15T09:29:34;4.22;;;1.42;;
60851;SDS011;48553;50.766;2.900;2022-11-15T09:32:34;6.40;;;1.38;;
60851;SDS011;48553;50.766;2.900;2022-11-15T09:35:35;4.90;;;1.30;;
60851;SDS011;48553;50.766;2.900;2022-11-15T09:38:36;4.35;;;1.23;;
60851;SDS011;48553;50.766;2.900;2022-11-15T09:48:26;3.60;;;1.42;;
60851;SDS011;48553;50.766;2.900;2022-11-15T09:51:50;4.68;;;1.10;;
60851;SDS011;48553;50.766;2.900;2022-11-15T09:54:52;3.50;;;1.30;;
60851;SDS011;48553;50.766;2.900;2022-11-15T09:57:55;3.70;;;1.23;;
60851;SDS011;48553;50.766;2.900;2022-11-15T10:01:05;5.20;;;1.45;;
60851;SDS011;48553;50.766;2.900;2022-11-15T10:04:11;6.53;;;1.13;;
60851;SDS011;48553;50.766;2.900;2022-11-15T10:07:18;3.35;;;1.20;;
60851;SDS011;48553;50.766;2.900;2022-11-15T10:10:35;3.60;;;1.27;;
60851;SDS011;48553;50.766;2.900;2022-11-15T10:13:43;3.75;;;1.30;;
60851;SDS011;48553;50.766;2.900;2022-11-15T10:23:00;11.27;;;1.95;;
60851;SDS011;48553;50.766;2.900;2022-11-15T10:26:07;12.52;;;1.83;;
60851;SDS011;48553;50.766;2.900;2022-11-15T10:29:11;13.02;;;1.98;;
60851;SDS011;48553;50.766;2.900;2022-11-15T10:32:12;4.75;;;1.30;;
60851;SDS011;48553;50.766;2.900;2022-11-15T10:35:17;7.32;;;1.38;;
60851;SDS011;48553;50.766;2.900;2022-11-15T10:38:29;4.78;;;1.17;;
60851;SDS011;48553;50.766;2.900;2022-11-15T10:41:31;6.32;;;1.48;;
60851;SDS011;48553;50.766;2.900;2022-11-15T10:44:35;6.22;;;1.40;;
60851;SDS011;48553;50.766;2.900;2022-11-15T10:47:42;5.65;;;1.20;;
60851;SDS011;48553;50.766;2.900;2022-11-15T10:50:44;4.75;;;1.40;;
60851;SDS011;48553;50.766;2.900;2022-11-15T10:53:45;7.38;;;1.60;;
60851;SDS011;48553;50.766;2.900;2022-11-15T10:56:48;12.18;;;2.53;;
60851;SDS011;48553;50.766;2.900;2022-11-15T10:59:55;7.72;;;1.75;;
60851;SDS011;48553;50.766;2.900;2022-11-15T11:06:05;6.90;;;1.50;;
60851;SDS011;48553;50.766;2.900;2022-11-15T11:12:36;4.80;;;1.30;;
60851;SDS011;48553;50.766;2.900;2022-11-15T11:15:36;5.20;;;1.13;;
60851;SDS011;48553;50.766;2.900;2022-11-15T11:18:38;5.40;;;1.17;;
60851;SDS011;48553;50.766;2.900;2022-11-15T11:38:22;4.93;;;1.20;;
60851;SDS011;48553;50.766;2.900;2022-11-15T11:51:47;4.15;;;1.20;;
60851;SDS011;48553;50.766;2.900;2022-11-15T11:55:13;5.20;;;1.35;;
60851;SDS011;48553;50.766;2.900;2022-11-15T12:01:42;2.80;;;1.17;;
60851;SDS011;48553;50.766;2.900;2022-11-15T12:04:45;4.63;;;1.50;;
60851;SDS011;48553;50.766;2.900;2022-11-15T12:07:50;5.55;;;1.30;;
60851;SDS011;48553;50.766;2.900;2022-11-15T12:11:03;7.05;;;1.42;;
60851;SDS011;48553;50.766;2.900;2022-11-15T12:14:14;3.63;;;1.20;;
60851;SDS011;48553;50.766;2.900;2022-11-15T12:17:28;4.88;;;1.35;;
60851;SDS011;48553;50.766;2.900;2022-11-15T12:20:35;2.53;;;1.35;;
60851;SDS011;48553;50.766;2.900;2022-11-15T12:23:47;5.55;;;1.58;;
60851;SDS011;48553;50.766;2.900;2022-11-15T12:27:03;3.53;;;1.27;;
60851;SDS011;48553;50.766;2.900;2022-11-15T12:30:18;7.43;;;1.70;;
60851;SDS011;48553;50.766;2.900;2022-11-15T12:36:47;4.90;;;1.27;;
60851;SDS011;48553;50.766;2.900;2022-11-15T12:40:16;6.15;;;1.60;;
60851;SDS011;48553;50.766;2.900;2022-11-15T12:43:37;5.40;;;1.67;;
60851;SDS011;48553;50.766;2.900;2022-11-15T12:53:17;3.45;;;1.40;;
60851;SDS011;48553;50.766;2.900;2022-11-15T12:56:20;4.32;;;1.50;;
60851;SDS011;48553;50.766;2.900;2022-11-15T12:59:47;5.55;;;1.38;;
60851;SDS011;48553;50.766;2.900;2022-11-15T13:03:17;4.05;;;1.38;;
60851;SDS011;48553;50.766;2.900;2022-11-15T13:06:43;3.15;;;1.33;;
60851;SDS011;48553;50.766;2.900;2022-11-15T13:18:59;4.75;;;1.48;;
60851;SDS011;48553;50.766;2.900;2022-11-15T13:22:04;7.13;;;1.88;;
60851;SDS011;48553;50.766;2.900;2022-11-15T13:28:46;5.53;;;1.88;;
60851;SDS011;48553;50.766;2.900;2022-11-15T13:31:49;3.35;;;1.48;;
60851;SDS011;48553;50.766;2.900;2022-11-15T13:34:50;6.40;;;1.73;;
60851;SDS011;48553;50.766;2.900;2022-11-15T13:37:53;3.95;;;1.67;;
60851;SDS011;48553;50.766;2.900;2022-11-15T13:40:55;4.13;;;1.88;;
60851;SDS011;48553;50.766;2.900;2022-11-15T13:43:57;3.80;;;1.63;;
60851;SDS011;48553;50.766;2.900;2022-11-15T13:47:14;6.35;;;1.80;;
60851;SDS011;48553;50.766;2.900;2022-11-15T13:50:19;5.07;;;1.88;;
60851;SDS011;48553;50.766;2.900;2022-11-15T13:53:24;3.92;;;1.70;;
60851;SDS011;48553;50.766;2.900;2022-11-15T13:56:24;4.60;;;1.77;;
60851;SDS011;48553;50.766;2.900;2022-11-15T13:59:28;5.85;;;1.80;;
60851;SDS011;48553;50.766;2.900;2022-11-15T14:02:35;5.85;;;1.80;;
60851;SDS011;48553;50.766;2.900;2022-11-15T14:05:36;4.22;;;2.00;;
60851;SDS011;48553;50.766;2.900;2022-11-15T14:08:36;4.65;;;1.60;;
60851;SDS011;48553;50.766;2.900;2022-11-15T14:11:59;5.60;;;1.80;;
60851;SDS011;48553;50.766;2.900;2022-11-15T14:15:17;3.90;;;1.70;;
60851;SDS011;48553;50.766;2.900;2022-11-15T14:18:45;4.40;;;1.55;;
60851;SDS011;48553;50.766;2.900;2022-11-15T14:31:24;5.20;;;1.67;;
60851;SDS011;48553;50.766;2.900;2022-11-15T14:34:25;4.15;;;1.88;;
60851;SDS011;48553;50.766;2.900;2022-11-15T14:37:26;5.15;;;1.80;;
60851;SDS011;48553;50.766;2.900;2022-11-15T14:40:34;5.03;;;1.90;;
60851;SDS011;48553;50.766;2.900;2022-11-15T14:43:34;4.55;;;1.80;;
60851;SDS011;48553;50.766;2.900;2022-11-15T14:46:35;4.65;;;1.95;;
60851;SDS011;48553;50.766;2.900;2022-11-15T14:49:35;4.00;;;1.92;;
60851;SDS011;48553;50.766;2.900;2022-11-15T14:52:36;4.28;;;1.80;;
60851;SDS011;48553;50.766;2.900;2022-11-15T14:55:36;3.85;;;1.90;;
60851;SDS011;48553;50.766;2.900;2022-11-15T14:58:37;4.13;;;1.83;;
60851;SDS011;48553;50.766;2.900;2022-11-15T15:01:37;3.58;;;1.60;;
60851;SDS011;48553;50.766;2.900;2022-11-15T15:04:38;5.20;;;2.00;;
60851;SDS011;48553;50.766;2.900;2022-11-15T15:07:38;4.00;;;1.60;;
60851;SDS011;48553;50.766;2.900;2022-11-15T15:10:40;3.97;;;1.85;;
60851;SDS011;48553;50.766;2.900;2022-11-15T15:13:42;3.55;;;1.92;;
60851;SDS011;48553;50.766;2.900;2022-11-15T15:16:42;5.82;;;2.10;;
60851;SDS011;48553;50.766;2.900;2022-11-15T15:19:43;5.45;;;1.90;;
60851;SDS011;48553;50.766;2.900;2022-11-15T15:22:43;4.18;;;1.85;;
60851;SDS011;48553;50.766;2.900;2022-11-15T15:25:45;3.92;;;1.80;;
60851;SDS011;48553;50.766;2.900;2022-11-15T15:28:46;5.38;;;2.08;;
60851;SDS011;48553;50.766;2.900;2022-11-15T15:31:48;4.55;;;1.90;;
60851;SDS011;48553;50.766;2.900;2022-11-15T15:34:48;4.38;;;2.05;;
60851;SDS011;48553;50.766;2.900;2022-11-15T15:37:49;4.07;;;1.98;;
60851;SDS011;48553;50.766;2.900;2022-11-15T15:40:51;3.78;;;1.80;;
60851;SDS011;48553;50.766;2.900;2022-11-15T15:43:51;4.43;;;1.92;;
60851;SDS011;48553;50.766;2.900;2022-11-15T15:46:51;6.60;;;1.90;;
60851;SDS011;48553;50.766;2.900;2022-11-15T15:49:52;4.45;;;2.25;;
60851;SDS011;48553;50.766;2.900;2022-11-15T15:52:53;3.22;;;1.95;;
60851;SDS011;48553;50.766;2.900;2022-11-15T15:55:55;3.60;;;1.80;;
60851;SDS011;48553;50.766;2.900;2022-11-15T15:58:55;5.18;;;1.88;;
60851;SDS011;48553;50.766;2.900;2022-11-15T16:01:56;3.45;;;2.00;;
60851;SDS011;48553;50.766;2.900;2022-11-15T16:04:56;3.63;;;2.00;;
60851;SDS011;48553;50.766;2.900;2022-11-15T16:07:57;4.18;;;1.95;;
60851;SDS011;48553;50.766;2.900;2022-11-15T16:10:57;4.18;;;2.08;;
60851;SDS011;48553;50.766;2.900;2022-11-15T16:13:58;3.03;;;1.70;;
60851;SDS011;48553;50.766;2.900;2022-11-15T16:16:59;3.90;;;1.85;;
60851;SDS011;48553;50.766;2.900;2022-11-15T16:19:59;3.60;;;1.90;;
60851;SDS011;48553;50.766;2.900;2022-11-15T16:23:00;3.30;;;2.00;;
60851;SDS011;48553;50.766;2.900;2022-11-15T16:26:01;3.28;;;1.92;;
60851;SDS011;48553;50.766;2.900;2022-11-15T16:29:04;3.08;;;1.90;;
60851;SDS011;48553;50.766;2.900;2022-11-15T16:32:06;3.97;;;2.08;;
60851;SDS011;48553;50.766;2.900;2022-11-15T16:35:09;4.28;;;1.98;;
60851;SDS011;48553;50.766;2.900;2022-11-15T16:38:14;4.60;;;2.10;;
60851;SDS011;48553;50.766;2.900;2022-11-15T16:41:15;4.60;;;1.92;;
60851;SDS011;48553;50.766;2.900;2022-11-15T16:44:18;5.18;;;2.35;;
60851;SDS011;48553;50.766;2.900;2022-11-15T16:47:18;4.55;;;2.40;;
60851;SDS011;48553;50.766;2.900;2022-11-15T16:50:23;3.85;;;2.22;;
60851;SDS011;48553;50.766;2.900;2022-11-15T16:53:27;3.97;;;2.05;;
60851;SDS011;48553;50.766;2.900;2022-11-15T16:56:28;4.10;;;2.30;;
60851;SDS011;48553;50.766;2.900;2022-11-15T16:59:29;4.07;;;2.50;;
60851;SDS011;48553;50.766;2.900;2022-11-15T17:02:32;3.88;;;2.40;;
60851;SDS011;48553;50.766;2.900;2022-11-15T17:05:33;4.20;;;2.50;;
60851;SDS011;48553;50.766;2.900;2022-11-15T17:08:33;5.50;;;2.65;;
60851;SDS011;48553;50.766;2.900;2022-11-15T17:11:33;4.35;;;2.55;;
60851;SDS011;48553;50.766;2.900;2022-11-15T17:14:34;3.88;;;2.50;;
60851;SDS011;48553;50.766;2.900;2022-11-15T17:17:34;4.82;;;2.80;;
60851;SDS011;48553;50.766;2.900;2022-11-15T17:20:35;5.30;;;2.58;;
60851;SDS011;48553;50.766;2.900;2022-11-15T17:23:35;5.03;;;2.53;;
60851;SDS011;48553;50.766;2.900;2022-11-15T17:26:36;4.05;;;2.80;;
60851;SDS011;48553;50.766;2.900;2022-11-15T17:29:37;4.90;;;2.97;;
60851;SDS011;48553;50.766;2.900;2022-11-15T17:32:38;6.22;;;3.08;;
60851;SDS011;48553;50.766;2.900;2022-11-15T17:35:38;6.28;;;3.42;;
60851;SDS011;48553;50.766;2.900;2022-11-15T17:38:42;5.20;;;3.20;;
60851;SDS011;48553;50.766;2.900;2022-11-15T17:41:42;5.65;;;3.05;;
60851;SDS011;48553;50.766;2.900;2022-11-15T17:44:43;6.43;;;3.05;;
60851;SDS011;48553;50.766;2.900;2022-11-15T17:47:43;4.57;;;2.88;;
60851;SDS011;48553;50.766;2.900;2022-11-15T17:50:52;5.72;;;3.10;;
60851;SDS011;48553;50.766;2.900;2022-11-15T17:53:57;7.57;;;3.13;;
60851;SDS011;48553;50.766;2.900;2022-11-15T17:56:58;5.82;;;3.10;;
60851;SDS011;48553;50.766;2.900;2022-11-15T17:59:58;5.97;;;3.15;;
60851;SDS011;48553;50.766;2.900;2022-11-15T18:02:58;6.38;;;3.40;;
60851;SDS011;48553;50.766;2.900;2022-11-15T18:05:59;5.60;;;3.05;;
60851;SDS011;48553;50.766;2.900;2022-11-15T18:09:00;6.53;;;3.50;;
60851;SDS011;48553;50.766;2.900;2022-11-15T18:12:01;5.60;;;3.28;;
60851;SDS011;48553;50.766;2.900;2022-11-15T18:15:01;6.07;;;3.25;;
60851;SDS011;48553;50.766;2.900;2022-11-15T18:18:02;5.65;;;3.25;;
60851;SDS011;48553;50.766;2.900;2022-11-15T18:21:03;6.15;;;3.45;;
60851;SDS011;48553;50.766;2.900;2022-11-15T18:24:05;6.45;;;3.22;;
60851;SDS011;48553;50.766;2.900;2022-11-15T18:27:06;5.68;;;3.45;;
60851;SDS011;48553;50.766;2.900;2022-11-15T18:30:07;4.70;;;3.22;;
60851;SDS011;48553;50.766;2.900;2022-11-15T18:33:08;5.15;;;3.53;;
60851;SDS011;48553;50.766;2.900;2022-11-15T18:36:09;5.55;;;3.20;;
60851;SDS011;48553;50.766;2.900;2022-11-15T18:39:12;7.78;;;3.63;;
60851;SDS011;48553;50.766;2.900;2022-11-15T18:42:15;8.60;;;3.80;;
60851;SDS011;48553;50.766;2.900;2022-11-15T18:45:15;6.95;;;3.78;;
60851;SDS011;48553;50.766;2.900;2022-11-15T18:48:16;5.80;;;3.80;;
60851;SDS011;48553;50.766;2.900;2022-11-15T18:51:17;6.65;;;3.83;;
60851;SDS011;48553;50.766;2.900;2022-11-15T18:54:19;7.07;;;3.72;;
60851;SDS011;48553;50.766;2.900;2022-11-15T18:57:19;10.95;;;4.35;;
60851;SDS011;48553;50.766;2.900;2022-11-15T19:00:20;10.82;;;4.50;;
60851;SDS011;48553;50.766;2.900;2022-11-15T19:03:20;10.10;;;4.60;;
60851;SDS011;48553;50.766;2.900;2022-11-15T19:06:25;7.07;;;4.20;;
60851;SDS011;48553;50.766;2.900;2022-11-15T19:09:26;8.73;;;4.35;;
60851;SDS011;48553;50.766;2.900;2022-11-15T19:12:32;8.45;;;4.22;;
60851;SDS011;48553;50.766;2.900;2022-11-15T19:15:33;8.98;;;4.30;;
60851;SDS011;48553;50.766;2.900;2022-11-15T19:18:33;7.68;;;4.07;;
60851;SDS011;48553;50.766;2.900;2022-11-15T19:21:33;8.98;;;4.13;;
60851;SDS011;48553;50.766;2.900;2022-11-15T19:24:34;8.50;;;3.92;;
60851;SDS011;48553;50.766;2.900;2022-11-15T19:27:34;6.88;;;3.80;;
60851;SDS011;48553;50.766;2.900;2022-11-15T19:30:35;9.13;;;4.47;;
60851;SDS011;48553;50.766;2.900;2022-11-15T19:33:35;6.80;;;4.22;;
60851;SDS011;48553;50.766;2.900;2022-11-15T19:36:37;8.40;;;4.18;;
60851;SDS011;48553;50.766;2.900;2022-11-15T19:39:41;8.68;;;4.68;;
60851;SDS011;48553;50.766;2.900;2022-11-15T19:42:41;7.90;;;4.32;;
60851;SDS011;48553;50.766;2.900;2022-11-15T19:45:42;9.00;;;4.22;;
60851;SDS011;48553;50.766;2.900;2022-11-15T19:48:42;7.90;;;4.40;;
60851;SDS011;48553;50.766;2.900;2022-11-15T19:51:43;7.70;;;4.20;;
60851;SDS011;48553;50.766;2.900;2022-11-15T19:54:46;8.63;;;4.40;;
60851;SDS011;48553;50.766;2.900;2022-11-15T19:57:46;8.05;;;4.38;;
60851;SDS011;48553;50.766;2.900;2022-11-15T20:00:47;7.53;;;4.30;;
60851;SDS011;48553;50.766;2.900;2022-11-15T20:03:47;7.30;;;4.15;;
60851;SDS011;48553;50.766;2.900;2022-11-15T20:06:49;6.72;;;4.25;;
60851;SDS011;48553;50.766;2.900;2022-11-15T20:09:49;7.80;;;4.40;;
60851;SDS011;48553;50.766;2.900;2022-11-15T20:12:49;7.00;;;4.25;;
60851;SDS011;48553;50.766;2.900;2022-11-15T20:15:50;7.43;;;3.83;;
60851;SDS011;48553;50.766;2.900;2022-11-15T20:18:51;6.80;;;4.07;;
60851;SDS011;48553;50.766;2.900;2022-11-15T20:21:52;8.35;;;4.07;;
60851;SDS011;48553;50.766;2.900;2022-11-15T20:24:52;9.13;;;4.28;;